sensor_id;sensor_type;location;lat;lon;timestamp;pressure;altitude;pressure_sealevel;temperature;humidity
76084;BME280;64789;0.000;0.000;2023-11-21T00:00:34;93470.78;;;4.67;71.64
76084;BME280;64789;0.000;0.000;2023-11-21T00:03:00;93465.31;;;4.61;72.31
76084;BME280;64789;0.000;0.000;2023-11-21T00:05:26;93472.03;;;4.65;71.96
76084;BME280;64789;0.000;0.000;2023-11-21T00:07:51;93475.13;;;4.62;71.78
76084;BME280;64789;0.000;0.000;2023-11-21T00:10:17;93471.38;;;4.59;71.98
76084;BME280;64789;0.000;0.000;2023-11-21T00:12:43;93477.34;;;4.63;73.11
76084;BME280;64789;0.000;0.000;2023-11-21T00:15:09;93471.34;;;4.41;74.64
76084;BME280;64789;0.000;0.000;2023-11-21T00:17:38;93473.72;;;4.50;72.96
76084;BME280;64789;0.000;0.000;2023-11-21T00:20:05;93473.44;;;4.35;73.65
76084;BME280;64789;0.000;0.000;2023-11-21T00:22:32;93475.47;;;4.34;73.14
76084;BME280;64789;0.000;0.000;2023-11-21T00:24:58;93481.66;;;4.40;72.53
76084;BME280;64789;0.000;0.000;2023-11-21T00:27:24;93475.63;;;4.42;72.35
76084;BME280;64789;0.000;0.000;2023-11-21T00:29:50;93471.94;;;4.34;71.86
76084;BME280;64789;0.000;0.000;2023-11-21T00:32:16;93472.97;;;4.31;73.58
76084;BME280;64789;0.000;0.000;2023-11-21T00:34:41;93466.56;;;4.23;72.71
76084;BME280;64789;0.000;0.000;2023-11-21T00:37:07;93462.69;;;4.07;74.50
76084;BME280;64789;0.000;0.000;2023-11-21T00:39:33;93464.91;;;3.90;75.38
76084;BME280;64789;0.000;0.000;2023-11-21T00:42:00;93459.03;;;3.99;75.10
76084;BME280;64789;0.000;0.000;2023-11-21T00:44:25;93464.38;;;4.16;73.58
76084;BME280;64789;0.000;0.000;2023-11-21T00:46:51;93457.88;;;4.13;74.26
76084;BME280;64789;0.000;0.000;2023-11-21T00:49:17;93459.41;;;4.09;74.36
76084;BME280;64789;0.000;0.000;2023-11-21T00:51:43;93461.72;;;4.05;74.73
76084;BME280;64789;0.000;0.000;2023-11-21T00:54:08;93467.69;;;4.09;73.95
76084;BME280;64789;0.000;0.000;2023-11-21T00:56:34;93460.84;;;4.15;74.05
76084;BME280;64789;0.000;0.000;2023-11-21T00:59:00;93468.94;;;4.13;73.57
76084;BME280;64789;0.000;0.000;2023-11-21T01:01:26;93455.91;;;4.08;73.11
76084;BME280;64789;0.000;0.000;2023-11-21T01:03:51;93461.59;;;3.67;76.90
76084;BME280;64789;0.000;0.000;2023-11-21T01:06:18;93452.81;;;3.69;77.34
76084;BME280;64789;0.000;0.000;2023-11-21T01:08:45;93455.69;;;3.82;76.34
76084;BME280;64789;0.000;0.000;2023-11-21T01:11:10;93455.06;;;3.94;74.60
76084;BME280;64789;0.000;0.000;2023-11-21T01:13:40;93442.00;;;3.95;74.60
76084;BME280;64789;0.000;0.000;2023-11-21T01:16:06;93441.81;;;3.87;74.57
76084;BME280;64789;0.000;0.000;2023-11-21T01:18:32;93443.81;;;3.87;75.25
76084;BME280;64789;0.000;0.000;2023-11-21T01:20:57;93436.88;;;3.80;74.45
76084;BME280;64789;0.000;0.000;2023-11-21T01:23:23;93441.66;;;3.80;75.56
76084;BME280;64789;0.000;0.000;2023-11-21T01:25:49;93445.53;;;3.71;75.09
76084;BME280;64789;0.000;0.000;2023-11-21T01:28:14;93437.28;;;3.66;76.51
76084;BME280;64789;0.000;0.000;2023-11-21T01:30:40;93448.03;;;3.69;74.70
76084;BME280;64789;0.000;0.000;2023-11-21T01:33:06;93449.09;;;3.66;74.21
76084;BME280;64789;0.000;0.000;2023-11-21T01:35:31;93454.34;;;3.40;76.75
76084;BME280;64789;0.000;0.000;2023-11-21T01:37:57;93460.09;;;3.12;79.10
76084;BME280;64789;0.000;0.000;2023-11-21T01:40:23;93449.00;;;3.18;76.61
76084;BME280;64789;0.000;0.000;2023-11-21T01:42:50;93447.41;;;3.28;76.82
76084;BME280;64789;0.000;0.000;2023-11-21T01:45:15;93444.94;;;3.24;75.49
76084;BME280;64789;0.000;0.000;2023-11-21T01:47:41;93441.63;;;3.31;74.69
76084;BME280;64789;0.000;0.000;2023-11-21T01:50:08;93452.44;;;3.29;74.66
76084;BME280;64789;0.000;0.000;2023-11-21T01:52:34;93448.91;;;3.29;75.58
76084;BME280;64789;0.000;0.000;2023-11-21T01:55:00;93450.47;;;3.24;75.90
76084;BME280;64789;0.000;0.000;2023-11-21T01:57:26;93449.72;;;3.24;74.61
76084;BME280;64789;0.000;0.000;2023-11-21T01:59:52;93446.25;;;3.18;76.39
76084;BME280;64789;0.000;0.000;2023-11-21T02:02:19;93426.19;;;2.88;78.50
76084;BME280;64789;0.000;0.000;2023-11-21T02:04:45;93428.28;;;3.06;76.80
76084;BME280;64789;0.000;0.000;2023-11-21T02:07:10;93432.69;;;3.20;76.49
76084;BME280;64789;0.000;0.000;2023-11-21T02:09:37;93430.84;;;3.28;75.73
76084;BME280;64789;0.000;0.000;2023-11-21T02:12:08;93427.59;;;3.29;75.86
76084;BME280;64789;0.000;0.000;2023-11-21T02:14:35;93427.59;;;3.29;76.29
76084;BME280;64789;0.000;0.000;2023-11-21T02:17:01;93434.84;;;3.33;76.79
76084;BME280;64789;0.000;0.000;2023-11-21T02:19:30;93425.81;;;3.32;76.40
76084;BME280;64789;0.000;0.000;2023-11-21T02:21:57;93428.56;;;3.32;75.78
76084;BME280;64789;0.000;0.000;2023-11-21T02:24:26;93438.16;;;3.25;75.06
76084;BME280;64789;0.000;0.000;2023-11-21T02:26:52;93430.41;;;3.24;75.97
76084;BME280;64789;0.000;0.000;2023-11-21T02:29:18;93433.94;;;3.19;74.47
76084;BME280;64789;0.000;0.000;2023-11-21T02:31:47;93432.63;;;3.25;74.71
76084;BME280;64789;0.000;0.000;2023-11-21T02:34:14;93433.38;;;3.26;75.14
76084;BME280;64789;0.000;0.000;2023-11-21T02:36:42;93440.00;;;3.17;75.49
76084;BME280;64789;0.000;0.000;2023-11-21T02:39:08;93433.00;;;3.11;76.13
76084;BME280;64789;0.000;0.000;2023-11-21T02:41:33;93441.03;;;3.14;75.25
76084;BME280;64789;0.000;0.000;2023-11-21T02:44:00;93440.81;;;3.07;76.07
76084;BME280;64789;0.000;0.000;2023-11-21T02:46:26;93431.03;;;3.06;76.41
76084;BME280;64789;0.000;0.000;2023-11-21T02:48:52;93439.41;;;2.95;76.04
76084;BME280;64789;0.000;0.000;2023-11-21T02:51:19;93432.53;;;2.77;77.13
76084;BME280;64789;0.000;0.000;2023-11-21T02:53:45;93435.31;;;2.72;77.13
76084;BME280;64789;0.000;0.000;2023-11-21T02:56:12;93426.75;;;2.81;76.28
76084;BME280;64789;0.000;0.000;2023-11-21T02:58:40;93435.22;;;2.88;75.02
76084;BME280;64789;0.000;0.000;2023-11-21T03:01:06;93433.66;;;2.93;74.86
76084;BME280;64789;0.000;0.000;2023-11-21T03:03:33;93439.41;;;2.95;75.75
76084;BME280;64789;0.000;0.000;2023-11-21T03:05:59;93438.16;;;2.96;77.85
76084;BME280;64789;0.000;0.000;2023-11-21T03:08:25;93439.66;;;2.97;76.50
76084;BME280;64789;0.000;0.000;2023-11-21T03:10:50;93436.44;;;2.93;78.22
76084;BME280;64789;0.000;0.000;2023-11-21T03:13:16;93440.53;;;2.81;77.50
76084;BME280;64789;0.000;0.000;2023-11-21T03:15:41;93433.75;;;2.82;78.12
76084;BME280;64789;0.000;0.000;2023-11-21T03:18:08;93425.56;;;2.71;76.54
76084;BME280;64789;0.000;0.000;2023-11-21T03:20:33;93418.53;;;2.70;76.17
76084;BME280;64789;0.000;0.000;2023-11-21T03:23:00;93418.75;;;2.72;75.10
76084;BME280;64789;0.000;0.000;2023-11-21T03:25:26;93421.09;;;2.62;76.88
76084;BME280;64789;0.000;0.000;2023-11-21T03:27:51;93422.63;;;2.57;75.79
76084;BME280;64789;0.000;0.000;2023-11-21T03:30:17;93425.88;;;2.61;76.76
76084;BME280;64789;0.000;0.000;2023-11-21T03:32:43;93436.34;;;2.69;76.15
76084;BME280;64789;0.000;0.000;2023-11-21T03:35:09;93429.56;;;2.70;75.45
76084;BME280;64789;0.000;0.000;2023-11-21T03:37:35;93429.84;;;2.66;75.80
76084;BME280;64789;0.000;0.000;2023-11-21T03:40:00;93429.56;;;2.70;75.69
76084;BME280;64789;0.000;0.000;2023-11-21T03:42:26;93432.31;;;2.70;75.68
76084;BME280;64789;0.000;0.000;2023-11-21T03:56:32;93434.28;;;2.75;77.69
76084;BME280;64789;0.000;0.000;2023-11-21T03:58:57;93428.03;;;2.74;76.64
76084;BME280;64789;0.000;0.000;2023-11-21T04:01:23;93423.91;;;2.56;77.88
76084;BME280;64789;0.000;0.000;2023-11-21T04:03:49;93415.88;;;2.58;77.65
76084;BME280;64789;0.000;0.000;2023-11-21T04:19:00;93410.06;;;2.21;80.03
76084;BME280;64789;0.000;0.000;2023-11-21T04:21:26;93407.63;;;2.12;80.99
76084;BME280;64789;0.000;0.000;2023-11-21T04:23:52;93396.91;;;1.97;81.19
76084;BME280;64789;0.000;0.000;2023-11-21T04:26:18;93402.09;;;2.12;81.04
76084;BME280;64789;0.000;0.000;2023-11-21T04:41:43;93404.56;;;2.21;81.80
76084;BME280;64789;0.000;0.000;2023-11-21T04:44:08;93403.19;;;2.39;80.33
76084;BME280;64789;0.000;0.000;2023-11-21T04:46:34;93402.66;;;2.46;79.54
76084;BME280;64789;0.000;0.000;2023-11-21T04:48:59;93400.34;;;2.55;79.23
76084;BME280;64789;0.000;0.000;2023-11-21T04:51:26;93405.38;;;2.51;78.50
76084;BME280;64789;0.000;0.000;2023-11-21T05:06:59;93416.47;;;2.40;80.24
76084;BME280;64789;0.000;0.000;2023-11-21T05:09:26;93422.38;;;2.55;78.56
76084;BME280;64789;0.000;0.000;2023-11-21T05:11:53;93419.09;;;2.62;79.00
76084;BME280;64789;0.000;0.000;2023-11-21T05:14:19;93410.91;;;2.51;79.70
76084;BME280;64789;0.000;0.000;2023-11-21T08:50:22;93439.78;;;8.05;72.34
76084;BME280;64789;0.000;0.000;2023-11-21T08:52:48;93431.81;;;8.30;70.26
76084;BME280;64789;0.000;0.000;2023-11-21T08:55:14;93431.88;;;8.09;68.68
76084;BME280;64789;0.000;0.000;2023-11-21T08:57:40;93435.59;;;8.40;69.80
76084;BME280;64789;0.000;0.000;2023-11-21T09:00:07;93438.19;;;8.81;69.32
76084;BME280;64789;0.000;0.000;2023-11-21T09:02:41;93428.94;;;8.86;67.69
76084;BME280;64789;0.000;0.000;2023-11-21T09:05:13;93429.19;;;9.03;66.98
76084;BME280;64789;0.000;0.000;2023-11-21T09:07:39;93427.38;;;9.29;66.79
76084;BME280;64789;0.000;0.000;2023-11-21T09:10:06;93422.34;;;9.19;66.70
76084;BME280;64789;0.000;0.000;2023-11-21T09:12:33;93418.69;;;9.70;64.01
76084;BME280;64789;0.000;0.000;2023-11-21T09:15:01;93409.00;;;9.78;63.91
76084;BME280;64789;0.000;0.000;2023-11-21T09:17:27;93393.75;;;10.10;63.29
76084;BME280;64789;0.000;0.000;2023-11-21T09:19:52;93392.81;;;10.07;64.57
76084;BME280;64789;0.000;0.000;2023-11-21T09:22:18;93387.97;;;10.23;64.05
76084;BME280;64789;0.000;0.000;2023-11-21T09:24:44;93374.94;;;10.10;62.32
76084;BME280;64789;0.000;0.000;2023-11-21T09:27:09;93361.22;;;9.74;63.93
76084;BME280;64789;0.000;0.000;2023-11-21T09:29:38;93338.56;;;9.63;65.13
76084;BME280;64789;0.000;0.000;2023-11-21T09:32:04;93332.41;;;9.57;65.77
76084;BME280;64789;0.000;0.000;2023-11-21T09:34:33;93329.44;;;9.55;67.00
76084;BME280;64789;0.000;0.000;2023-11-21T09:36:58;93313.66;;;9.57;66.73
76084;BME280;64789;0.000;0.000;2023-11-21T09:39:24;93316.44;;;10.42;65.32
76084;BME280;64789;0.000;0.000;2023-11-21T09:41:50;93311.97;;;10.39;64.28
76084;BME280;64789;0.000;0.000;2023-11-21T09:44:17;93312.69;;;10.47;63.62
76084;BME280;64789;0.000;0.000;2023-11-21T09:46:43;93326.28;;;10.83;62.85
76084;BME280;64789;0.000;0.000;2023-11-21T09:49:13;93327.34;;;11.52;60.84
76084;BME280;64789;0.000;0.000;2023-11-21T09:51:43;93313.59;;;11.22;59.27
76084;BME280;64789;0.000;0.000;2023-11-21T09:54:11;93315.69;;;11.63;58.02
76084;BME280;64789;0.000;0.000;2023-11-21T09:56:38;93314.34;;;11.64;59.09
76084;BME280;64789;0.000;0.000;2023-11-21T09:59:04;93302.56;;;11.73;58.25
76084;BME280;64789;0.000;0.000;2023-11-21T10:01:33;93286.72;;;12.10;56.98
76084;BME280;64789;0.000;0.000;2023-11-21T10:04:01;93275.97;;;11.40;58.84
76084;BME280;64789;0.000;0.000;2023-11-21T10:06:26;93273.75;;;11.39;58.91
76084;BME280;64789;0.000;0.000;2023-11-21T10:08:54;93264.47;;;11.78;60.98
76084;BME280;64789;0.000;0.000;2023-11-21T10:11:25;93254.59;;;11.52;59.75
76084;BME280;64789;0.000;0.000;2023-11-21T10:13:52;93250.66;;;11.97;59.97
76084;BME280;64789;0.000;0.000;2023-11-21T10:16:19;93241.91;;;12.27;58.58
76084;BME280;64789;0.000;0.000;2023-11-21T10:18:47;93249.13;;;12.30;59.14
76084;BME280;64789;0.000;0.000;2023-11-21T10:21:13;93255.81;;;12.18;58.89
76084;BME280;64789;0.000;0.000;2023-11-21T10:23:39;93256.78;;;12.47;58.32
76084;BME280;64789;0.000;0.000;2023-11-21T10:26:05;93257.16;;;12.61;57.15
76084;BME280;64789;0.000;0.000;2023-11-21T10:28:35;93244.63;;;12.88;56.16
76084;BME280;64789;0.000;0.000;2023-11-21T10:31:02;93243.00;;;13.12;55.34
76084;BME280;64789;0.000;0.000;2023-11-21T10:33:28;93243.88;;;13.51;54.98
76084;BME280;64789;0.000;0.000;2023-11-21T10:35:57;93252.41;;;14.27;53.06
76084;BME280;64789;0.000;0.000;2023-11-21T10:38:25;93251.81;;;14.29;52.72
76084;BME280;64789;0.000;0.000;2023-11-21T10:40:52;93250.03;;;14.05;51.29
76084;BME280;64789;0.000;0.000;2023-11-21T10:43:20;93249.72;;;13.36;53.73
76084;BME280;64789;0.000;0.000;2023-11-21T10:45:49;93244.09;;;12.99;53.94
76084;BME280;64789;0.000;0.000;2023-11-21T10:48:15;93235.28;;;12.76;54.09
76084;BME280;64789;0.000;0.000;2023-11-21T10:50:41;93241.13;;;12.44;56.17
76084;BME280;64789;0.000;0.000;2023-11-21T10:53:06;93235.06;;;12.21;55.10
76084;BME280;64789;0.000;0.000;2023-11-21T10:55:33;93235.06;;;11.86;56.30
76084;BME280;64789;0.000;0.000;2023-11-21T10:58:03;93233.19;;;11.72;56.85
76084;BME280;64789;0.000;0.000;2023-11-21T11:00:30;93233.09;;;11.38;58.37
76084;BME280;64789;0.000;0.000;2023-11-21T11:02:55;93224.44;;;11.26;59.44
76084;BME280;64789;0.000;0.000;2023-11-21T11:05:25;93217.19;;;11.23;58.38
76084;BME280;64789;0.000;0.000;2023-11-21T11:07:51;93212.69;;;11.03;60.23
76084;BME280;64789;0.000;0.000;2023-11-21T11:10:27;93222.25;;;11.00;59.95
76084;BME280;64789;0.000;0.000;2023-11-21T11:12:55;93213.81;;;10.83;60.58
76084;BME280;64789;0.000;0.000;2023-11-21T11:15:21;93216.81;;;10.77;59.89
76084;BME280;64789;0.000;0.000;2023-11-21T11:17:46;93212.34;;;10.74;61.14
76084;BME280;64789;0.000;0.000;2023-11-21T11:20:14;93212.88;;;10.55;60.97
76084;BME280;64789;0.000;0.000;2023-11-21T11:22:44;93206.56;;;10.47;62.04
76084;BME280;64789;0.000;0.000;2023-11-21T11:32:54;93187.03;;;10.15;62.81
76084;BME280;64789;0.000;0.000;2023-11-21T11:35:38;93181.41;;;10.23;61.77
76084;BME280;64789;0.000;0.000;2023-11-21T11:38:08;93180.63;;;10.30;61.16
76084;BME280;64789;0.000;0.000;2023-11-21T11:40:44;93168.00;;;10.21;61.06
76084;BME280;64789;0.000;0.000;2023-11-21T11:43:10;93161.66;;;10.28;61.82
76084;BME280;64789;0.000;0.000;2023-11-21T11:45:37;93165.63;;;10.10;61.45
76084;BME280;64789;0.000;0.000;2023-11-21T11:48:17;93150.66;;;10.30;60.79
76084;BME280;64789;0.000;0.000;2023-11-21T11:51:01;93140.16;;;10.06;62.60
76084;BME280;64789;0.000;0.000;2023-11-21T11:53:44;93135.59;;;10.26;62.58
76084;BME280;64789;0.000;0.000;2023-11-21T11:58:47;93127.69;;;10.07;63.65
76084;BME280;64789;0.000;0.000;2023-11-21T12:01:13;93151.31;;;10.06;63.43
76084;BME280;64789;0.000;0.000;2023-11-21T12:03:38;93149.59;;;10.18;62.72
76084;BME280;64789;0.000;0.000;2023-11-21T12:06:05;93163.78;;;10.05;63.20
76084;BME280;64789;0.000;0.000;2023-11-21T12:08:32;93167.19;;;9.96;62.13
76084;BME280;64789;0.000;0.000;2023-11-21T12:10:58;93166.34;;;9.71;64.38
76084;BME280;64789;0.000;0.000;2023-11-21T12:13:24;93158.75;;;9.64;65.15
76084;BME280;64789;0.000;0.000;2023-11-21T12:15:50;93161.91;;;9.68;64.66
76084;BME280;64789;0.000;0.000;2023-11-21T12:18:16;93151.47;;;9.68;64.28
76084;BME280;64789;0.000;0.000;2023-11-21T12:20:42;93157.97;;;9.71;64.84
76084;BME280;64789;0.000;0.000;2023-11-21T12:23:12;93164.09;;;9.77;64.31
76084;BME280;64789;0.000;0.000;2023-11-21T12:25:40;93186.66;;;9.64;63.86
76084;BME280;64789;0.000;0.000;2023-11-21T12:28:06;93190.03;;;9.55;64.79
76084;BME280;64789;0.000;0.000;2023-11-21T12:30:35;93188.19;;;9.50;65.26
76084;BME280;64789;0.000;0.000;2023-11-21T12:33:03;93164.66;;;9.20;65.18
76084;BME280;64789;0.000;0.000;2023-11-21T12:35:32;93161.84;;;9.20;65.19
76084;BME280;64789;0.000;0.000;2023-11-21T12:38:05;93155.53;;;9.12;65.65
76084;BME280;64789;0.000;0.000;2023-11-21T12:40:30;93170.63;;;9.02;65.58
76084;BME280;64789;0.000;0.000;2023-11-21T12:42:56;93186.41;;;9.07;66.31
76084;BME280;64789;0.000;0.000;2023-11-21T12:45:23;93195.88;;;9.04;65.90
76084;BME280;64789;0.000;0.000;2023-11-21T12:47:51;93192.34;;;8.81;66.48
76084;BME280;64789;0.000;0.000;2023-11-21T12:50:20;93188.63;;;8.93;66.16
76084;BME280;64789;0.000;0.000;2023-11-21T12:52:51;93189.94;;;8.77;66.92
76084;BME280;64789;0.000;0.000;2023-11-21T12:55:19;93175.81;;;8.90;67.04
76084;BME280;64789;0.000;0.000;2023-11-21T12:57:52;93159.09;;;9.05;66.46
76084;BME280;64789;0.000;0.000;2023-11-21T13:00:20;93155.72;;;9.22;66.54
76084;BME280;64789;0.000;0.000;2023-11-21T13:02:57;93155.94;;;9.09;66.05
76084;BME280;64789;0.000;0.000;2023-11-21T13:07:52;93133.66;;;9.09;65.91
76084;BME280;64789;0.000;0.000;2023-11-21T13:10:26;93133.78;;;9.34;65.35
76084;BME280;64789;0.000;0.000;2023-11-21T13:12:56;93144.00;;;9.39;65.31
76084;BME280;64789;0.000;0.000;2023-11-21T13:15:24;93129.31;;;9.31;65.68
76084;BME280;64789;0.000;0.000;2023-11-21T13:17:50;93130.81;;;9.32;65.73
76084;BME280;64789;0.000;0.000;2023-11-21T13:20:17;93124.47;;;9.39;66.03
76084;BME280;64789;0.000;0.000;2023-11-21T13:22:49;93123.72;;;9.38;65.79
76084;BME280;64789;0.000;0.000;2023-11-21T13:25:17;93141.69;;;9.60;64.64
76084;BME280;64789;0.000;0.000;2023-11-21T13:27:45;93139.09;;;9.47;65.91
76084;BME280;64789;0.000;0.000;2023-11-21T13:30:12;93125.53;;;9.51;65.32
76084;BME280;64789;0.000;0.000;2023-11-21T13:32:43;93128.09;;;9.56;64.51
76084;BME280;64789;0.000;0.000;2023-11-21T13:35:10;93122.91;;;9.60;64.46
76084;BME280;64789;0.000;0.000;2023-11-21T13:37:51;93122.72;;;9.58;64.73
76084;BME280;64789;0.000;0.000;2023-11-21T13:40:24;93127.75;;;9.52;65.33
76084;BME280;64789;0.000;0.000;2023-11-21T13:42:55;93121.78;;;9.63;63.74
76084;BME280;64789;0.000;0.000;2023-11-21T13:45:24;93111.78;;;9.53;63.97
76084;BME280;64789;0.000;0.000;2023-11-21T13:47:51;93111.94;;;9.55;63.84
76084;BME280;64789;0.000;0.000;2023-11-21T13:50:18;93120.50;;;9.57;63.96
76084;BME280;64789;0.000;0.000;2023-11-21T13:52:48;93120.66;;;9.59;63.46
76084;BME280;64789;0.000;0.000;2023-11-21T13:55:14;93113.44;;;9.56;63.89
76084;BME280;64789;0.000;0.000;2023-11-21T13:57:42;93113.47;;;9.48;63.69
76084;BME280;64789;0.000;0.000;2023-11-21T14:00:12;93109.94;;;9.48;64.06
76084;BME280;64789;0.000;0.000;2023-11-21T14:02:58;93119.56;;;9.54;64.46
76084;BME280;64789;0.000;0.000;2023-11-21T14:05:30;93118.31;;;9.40;64.32
76084;BME280;64789;0.000;0.000;2023-11-21T14:07:57;93120.75;;;9.44;64.13
76084;BME280;64789;0.000;0.000;2023-11-21T14:10:29;93119.59;;;9.47;64.94
76084;BME280;64789;0.000;0.000;2023-11-21T14:13:03;93101.44;;;9.38;64.30
76084;BME280;64789;0.000;0.000;2023-11-21T14:15:29;93116.88;;;9.32;64.63
76084;BME280;64789;0.000;0.000;2023-11-21T14:17:56;93102.22;;;9.23;65.21
76084;BME280;64789;0.000;0.000;2023-11-21T14:20:22;93105.94;;;9.26;64.57
76084;BME280;64789;0.000;0.000;2023-11-21T14:22:49;93114.13;;;9.16;64.39
76084;BME280;64789;0.000;0.000;2023-11-21T14:25:15;93114.13;;;9.16;65.33
76084;BME280;64789;0.000;0.000;2023-11-21T14:27:43;93111.53;;;9.11;65.34
76084;BME280;64789;0.000;0.000;2023-11-21T14:30:09;93121.97;;;8.95;65.75
76084;BME280;64789;0.000;0.000;2023-11-21T14:32:38;93114.34;;;8.96;65.52
76084;BME280;64789;0.000;0.000;2023-11-21T14:35:04;93103.41;;;8.90;66.06
76084;BME280;64789;0.000;0.000;2023-11-21T14:37:30;93104.91;;;8.84;65.84
76084;BME280;64789;0.000;0.000;2023-11-21T14:39:56;93109.72;;;8.83;66.32
76084;BME280;64789;0.000;0.000;2023-11-21T14:42:22;93101.59;;;8.63;67.75
76084;BME280;64789;0.000;0.000;2023-11-21T14:44:51;93100.25;;;8.79;67.97
76084;BME280;64789;0.000;0.000;2023-11-21T14:47:17;93103.09;;;8.41;68.08
76084;BME280;64789;0.000;0.000;2023-11-21T14:49:50;93106.41;;;8.39;68.34
76084;BME280;64789;0.000;0.000;2023-11-21T14:52:24;93098.75;;;8.10;69.37
76084;BME280;64789;0.000;0.000;2023-11-21T14:55:00;93095.81;;;8.23;69.77
76084;BME280;64789;0.000;0.000;2023-11-21T14:57:46;93106.00;;;8.20;68.87
76084;BME280;64789;0.000;0.000;2023-11-21T15:00:19;93107.13;;;8.25;68.82
76084;BME280;64789;0.000;0.000;2023-11-21T15:03:08;93106.22;;;8.30;69.69
76084;BME280;64789;0.000;0.000;2023-11-21T15:05:35;93095.81;;;8.23;68.88
76084;BME280;64789;0.000;0.000;2023-11-21T15:08:00;93098.97;;;8.12;70.80
76084;BME280;64789;0.000;0.000;2023-11-21T15:10:45;93093.38;;;7.97;71.25
76084;BME280;64789;0.000;0.000;2023-11-21T15:13:13;93085.38;;;7.85;70.87
76084;BME280;64789;0.000;0.000;2023-11-21T15:15:40;93087.97;;;7.83;70.44
76084;BME280;64789;0.000;0.000;2023-11-21T15:18:06;93090.41;;;7.94;70.62
76084;BME280;64789;0.000;0.000;2023-11-21T15:20:32;93092.25;;;8.00;70.48
76084;BME280;64789;0.000;0.000;2023-11-21T15:22:58;93085.97;;;8.07;70.20
76084;BME280;64789;0.000;0.000;2023-11-21T15:25:25;93091.91;;;8.03;69.89
76084;BME280;64789;0.000;0.000;2023-11-21T15:27:51;93095.97;;;8.10;70.92
76084;BME280;64789;0.000;0.000;2023-11-21T15:30:17;93080.22;;;7.97;70.36
76084;BME280;64789;0.000;0.000;2023-11-21T15:32:48;93085.91;;;7.76;70.79
76084;BME280;64789;0.000;0.000;2023-11-21T15:35:14;93090.56;;;7.81;70.98
76084;BME280;64789;0.000;0.000;2023-11-21T15:37:40;93090.41;;;7.87;69.99
76084;BME280;64789;0.000;0.000;2023-11-21T15:40:06;93095.22;;;7.94;70.11
76084;BME280;64789;0.000;0.000;2023-11-21T15:42:34;93092.78;;;7.83;71.42
76084;BME280;64789;0.000;0.000;2023-11-21T15:45:02;93084.41;;;7.60;71.58
76084;BME280;64789;0.000;0.000;2023-11-21T15:47:30;93086.38;;;7.45;72.36
76084;BME280;64789;0.000;0.000;2023-11-21T15:49:56;93082.19;;;7.15;73.83
76084;BME280;64789;0.000;0.000;2023-11-21T15:52:22;93074.50;;;7.37;73.69
76084;BME280;64789;0.000;0.000;2023-11-21T15:54:48;93062.28;;;7.40;72.48
76084;BME280;64789;0.000;0.000;2023-11-21T15:57:14;93067.88;;;7.47;72.32
76084;BME280;64789;0.000;0.000;2023-11-21T15:59:40;93059.53;;;7.47;72.84
76084;BME280;64789;0.000;0.000;2023-11-21T16:02:07;93049.91;;;7.48;72.41
76084;BME280;64789;0.000;0.000;2023-11-21T16:04:34;93058.09;;;7.61;71.96
76084;BME280;64789;0.000;0.000;2023-11-21T16:07:02;93043.81;;;7.57;71.89
76084;BME280;64789;0.000;0.000;2023-11-21T16:09:28;93047.50;;;7.52;72.85
76084;BME280;64789;0.000;0.000;2023-11-21T16:11:56;93054.19;;;7.57;72.10
76084;BME280;64789;0.000;0.000;2023-11-21T16:14:32;93052.91;;;7.65;72.89
76084;BME280;64789;0.000;0.000;2023-11-21T16:17:03;93037.78;;;7.23;73.97
76084;BME280;64789;0.000;0.000;2023-11-21T16:19:32;93028.75;;;7.38;73.58
76084;BME280;64789;0.000;0.000;2023-11-21T16:21:58;93026.72;;;7.38;73.34
76084;BME280;64789;0.000;0.000;2023-11-21T16:24:25;93037.09;;;7.38;72.88
76084;BME280;64789;0.000;0.000;2023-11-21T16:26:53;93031.72;;;7.40;72.49
76084;BME280;64789;0.000;0.000;2023-11-21T16:29:22;93042.66;;;7.38;73.15
76084;BME280;64789;0.000;0.000;2023-11-21T16:31:48;93042.47;;;7.51;71.78
76084;BME280;64789;0.000;0.000;2023-11-21T16:34:18;93039.72;;;7.43;71.46
76084;BME280;64789;0.000;0.000;2023-11-21T16:36:44;93035.56;;;7.29;72.44
76084;BME280;64789;0.000;0.000;2023-11-21T16:39:14;93038.56;;;7.31;72.31
76084;BME280;64789;0.000;0.000;2023-11-21T16:41:40;93032.44;;;7.33;71.81
76084;BME280;64789;0.000;0.000;2023-11-21T16:44:11;93029.53;;;7.53;71.92
76084;BME280;64789;0.000;0.000;2023-11-21T16:46:38;93028.25;;;7.54;71.24
76084;BME280;64789;0.000;0.000;2023-11-21T16:49:04;93032.50;;;7.55;71.13
76084;BME280;64789;0.000;0.000;2023-11-21T16:51:30;93032.69;;;7.57;71.43
76084;BME280;64789;0.000;0.000;2023-11-21T16:53:56;93030.31;;;7.69;71.50
76084;BME280;64789;0.000;0.000;2023-11-21T16:56:22;93024.94;;;7.71;72.43
76084;BME280;64789;0.000;0.000;2023-11-21T16:58:48;93012.13;;;7.53;71.41
76084;BME280;64789;0.000;0.000;2023-11-21T17:01:15;93011.94;;;7.58;71.29
76084;BME280;64789;0.000;0.000;2023-11-21T17:03:43;93012.13;;;7.68;71.04
76084;BME280;64789;0.000;0.000;2023-11-21T17:06:09;93006.56;;;7.68;70.90
76084;BME280;64789;0.000;0.000;2023-11-21T17:08:36;93004.34;;;7.59;71.29
76084;BME280;64789;0.000;0.000;2023-11-21T17:11:02;92987.84;;;7.46;71.83
76084;BME280;64789;0.000;0.000;2023-11-21T17:13:28;92994.53;;;7.50;71.27
76084;BME280;64789;0.000;0.000;2023-11-21T17:15:54;92985.59;;;7.44;70.71
76084;BME280;64789;0.000;0.000;2023-11-21T17:18:20;92992.09;;;7.47;68.98
76084;BME280;64789;0.000;0.000;2023-11-21T17:20:47;92992.81;;;7.32;70.00
76084;BME280;64789;0.000;0.000;2023-11-21T17:23:14;92999.50;;;7.52;68.38
76084;BME280;64789;0.000;0.000;2023-11-21T17:25:40;93011.41;;;7.60;68.21
76084;BME280;64789;0.000;0.000;2023-11-21T17:28:06;93016.78;;;7.80;68.46
76084;BME280;64789;0.000;0.000;2023-11-21T17:30:32;93011.63;;;7.92;67.54
76084;BME280;64789;0.000;0.000;2023-11-21T17:32:58;93008.06;;;7.69;68.50
76084;BME280;64789;0.000;0.000;2023-11-21T17:35:24;93005.84;;;7.67;68.26
76084;BME280;64789;0.000;0.000;2023-11-21T17:37:50;93003.97;;;7.62;68.22
76084;BME280;64789;0.000;0.000;2023-11-21T17:40:16;93002.69;;;7.86;66.12
76084;BME280;64789;0.000;0.000;2023-11-21T17:42:42;93004.38;;;7.81;67.33
76084;BME280;64789;0.000;0.000;2023-11-21T17:45:08;93006.59;;;7.83;66.65
76084;BME280;64789;0.000;0.000;2023-11-21T17:47:35;92995.09;;;7.86;65.93
76084;BME280;64789;0.000;0.000;2023-11-21T17:50:01;92999.34;;;8.03;65.12
76084;BME280;64789;0.000;0.000;2023-11-21T17:52:27;92988.63;;;7.91;66.17
76084;BME280;64789;0.000;0.000;2023-11-21T17:54:52;92992.69;;;7.90;65.85
76084;BME280;64789;0.000;0.000;2023-11-21T17:57:18;92994.94;;;7.84;66.13